Time;durP1;ratioP1;P1;durP2;ratioP2;P2;SDS_P1;SDS_P2;PMS_P1;PMS_P2;Temp;Humidity;BMP_temperature;BMP_pressure;BME280_temperature;BME280_humidity;BME280_pressure;Samples;Min_cycle;Max_cycle;Signal;HPM_P1;HPM_P2
2021/09/01 00:02:00;;;;;;;3.05;1.60;;;;;;;;;;5094620;28;20549;-65
2021/09/01 00:04:26;;;;;;;2.35;1.73;;;;;;;;;;5094531;28;20390;-64
2021/09/01 00:06:52;;;;;;;2.80;1.40;;;;;;;;;;5094718;28;20043;-64
2021/09/01 00:09:18;;;;;;;6.07;2.03;;;;;;;;;;5094803;28;20043;-65
2021/09/01 00:11:44;;;;;;;2.63;1.40;;;;;;;;;;5094737;28;20107;-64
2021/09/01 00:14:11;;;;;;;5.30;1.67;;;;;;;;;;5094320;28;20396;-66
2021/09/01 00:16:37;;;;;;;5.03;2.00;;;;;;;;;;5094196;28;20476;-68
2021/09/01 00:19:04;;;;;;;4.57;1.77;;;;;;;;;;5093919;28;20032;-66
2021/09/01 00:21:30;;;;;;;3.45;1.77;;;;;;;;;;5094113;28;20040;-67
2021/09/01 00:23:56;;;;;;;4.00;1.70;;;;;;;;;;5094279;28;20040;-65
2021/09/01 00:26:22;;;;;;;3.38;1.50;;;;;;;;;;5094411;28;20071;-66
2021/09/01 00:28:48;;;;;;;5.03;1.67;;;;;;;;;;5094043;28;20028;-65
2021/09/01 00:31:15;;;;;;;4.10;1.77;;;;;;;;;;5093980;28;20124;-65
2021/09/01 00:33:42;;;;;;;2.97;1.70;;;;;;;;;;5094355;28;20063;-65
2021/09/01 00:36:08;;;;;;;8.55;2.13;;;;;;;;;;5092679;28;20404;-66
2021/09/01 00:38:34;;;;;;;6.07;1.90;;;;;;;;;;5092975;28;20036;-68
2021/09/01 00:41:00;;;;;;;5.53;1.60;;;;;;;;;;5075710;28;20122;-65
2021/09/01 00:43:26;;;;;;;3.60;1.50;;;;;;;;;;5093970;28;20047;-67
2021/09/01 00:45:53;;;;;;;3.33;1.27;;;;;;;;;;5093992;28;20617;-65
2021/09/01 00:48:19;;;;;;;2.20;1.23;;;;;;;;;;5093996;28;20039;-66
2021/09/01 00:50:58;;;;;;;3.05;1.70;;;;;;;;;;5093980;28;20484;-64
2021/09/01 00:53:25;;;;;;;4.35;1.30;;;;;;;;;;5093643;28;20113;-65
2021/09/01 00:55:51;;;;;;;4.60;1.15;;;;;;;;;;5093466;28;20473;-66
2021/09/01 00:58:17;;;;;;;6.00;1.20;;;;;;;;;;5092268;28;20370;-65
2021/09/01 01:01:06;;;;;;;4.20;0.90;;;;;;;;;;5090901;28;20031;-65
2021/09/01 01:03:33;;;;;;;2.97;0.77;;;;;;;;;;5071674;28;20036;-65
2021/09/01 01:05:59;;;;;;;3.97;0.75;;;;;;;;;;5092459;28;20062;-65
2021/09/01 01:08:28;;;;;;;2.53;0.95;;;;;;;;;;5093561;28;20040;-64
2021/09/01 01:10:55;;;;;;;3.22;0.60;;;;;;;;;;5093540;28;20074;-64
2021/09/01 01:13:21;;;;;;;2.45;0.50;;;;;;;;;;5092916;28;20040;-64
2021/09/01 01:15:47;;;;;;;2.00;0.70;;;;;;;;;;5093311;28;20024;-65
2021/09/01 01:18:13;;;;;;;1.98;0.63;;;;;;;;;;5093469;28;20067;-66
2021/09/01 01:20:40;;;;;;;1.42;0.68;;;;;;;;;;5093290;28;20106;-65
2021/09/01 01:23:07;;;;;;;6.60;0.95;;;;;;;;;;5093016;28;20063;-64
2021/09/01 01:25:32;;;;;;;3.60;1.20;;;;;;;;;;5092913;28;20040;-65
2021/09/01 01:27:59;;;;;;;2.55;1.33;;;;;;;;;;5092874;28;20101;-66
2021/09/01 01:30:25;;;;;;;3.97;1.40;;;;;;;;;;5092286;28;20036;-65
2021/09/01 01:32:52;;;;;;;2.63;1.60;;;;;;;;;;5093232;28;20477;-64
2021/09/01 01:35:28;;;;;;;2.55;1.90;;;;;;;;;;5093066;28;20031;-65
2021/09/01 01:37:55;;;;;;;5.65;2.33;;;;;;;;;;5092934;28;20044;-65
2021/09/01 01:40:21;;;;;;;3.55;2.08;;;;;;;;;;5092498;28;20032;-64
2021/09/01 01:42:49;;;;;;;3.83;2.08;;;;;;;;;;5092305;28;20032;-64
2021/09/01 01:45:15;;;;;;;3.28;2.17;;;;;;;;;;5092921;28;20085;-65
2021/09/01 01:47:41;;;;;;;6.28;2.15;;;;;;;;;;5092785;28;20039;-63
2021/09/01 01:50:07;;;;;;;3.28;1.92;;;;;;;;;;5092562;28;20056;-65
2021/09/01 01:52:34;;;;;;;3.22;1.73;;;;;;;;;;5090919;28;20037;-65
2021/09/01 01:55:00;;;;;;;2.42;1.50;;;;;;;;;;5092119;28;20388;-65
2021/09/01 01:57:26;;;;;;;7.13;1.70;;;;;;;;;;5092786;28;20040;-64
2021/09/01 01:59:52;;;;;;;5.13;1.60;;;;;;;;;;5092787;28;20032;-64
2021/09/01 02:02:18;;;;;;;4.15;1.40;;;;;;;;;;5092765;28;20040;-65
2021/09/01 02:04:44;;;;;;;5.35;1.83;;;;;;;;;;5092715;28;20054;-65
2021/09/01 02:07:10;;;;;;;3.30;1.65;;;;;;;;;;5092893;28;20040;-65
2021/09/01 02:09:36;;;;;;;2.38;1.48;;;;;;;;;;5093379;28;20056;-65
2021/09/01 02:12:02;;;;;;;2.40;1.27;;;;;;;;;;5092649;28;20085;-65
2021/09/01 02:14:28;;;;;;;4.90;2.00;;;;;;;;;;5092660;28;20085;-65
2021/09/01 02:16:54;;;;;;;3.47;1.60;;;;;;;;;;5091331;28;20059;-65
2021/09/01 02:19:20;;;;;;;5.75;1.75;;;;;;;;;;5091361;28;20036;-64
2021/09/01 02:21:46;;;;;;;4.43;2.28;;;;;;;;;;5092565;28;20078;-64
2021/09/01 02:24:12;;;;;;;4.40;1.75;;;;;;;;;;5082817;28;20098;-64
2021/09/01 02:26:38;;;;;;;2.95;1.85;;;;;;;;;;5072227;28;20036;-66
2021/09/01 02:29:04;;;;;;;2.60;1.75;;;;;;;;;;5072314;28;20111;-66
2021/09/01 02:31:30;;;;;;;6.85;1.73;;;;;;;;;;5072520;28;20108;-64
2021/09/01 02:33:56;;;;;;;5.22;1.90;;;;;;;;;;5072289;28;20055;-64
2021/09/01 02:36:22;;;;;;;2.90;1.40;;;;;;;;;;5072248;28;20110;-65
2021/09/01 02:38:48;;;;;;;2.70;1.90;;;;;;;;;;5072375;28;20538;-65
2021/09/01 02:41:14;;;;;;;2.90;1.55;;;;;;;;;;5073003;28;20040;-65
2021/09/01 02:43:40;;;;;;;2.85;1.42;;;;;;;;;;5075765;28;20103;-67
2021/09/01 02:46:06;;;;;;;2.28;1.60;;;;;;;;;;5075849;28;20048;-64
2021/09/01 02:48:33;;;;;;;7.85;1.60;;;;;;;;;;5075855;28;20048;-66
2021/09/01 02:50:59;;;;;;;3.45;1.60;;;;;;;;;;5074331;28;20179;-65
2021/09/01 02:53:25;;;;;;;2.50;1.55;;;;;;;;;;5075451;28;20107;-64
2021/09/01 02:55:51;;;;;;;5.50;1.63;;;;;;;;;;5075641;28;20059;-65
2021/09/01 02:58:17;;;;;;;4.13;1.70;;;;;;;;;;5075848;28;20035;-64
2021/09/01 03:00:43;;;;;;;2.78;1.60;;;;;;;;;;5075810;28;20131;-66
2021/09/01 03:03:09;;;;;;;3.53;1.98;;;;;;;;;;5075538;28;20024;-65
2021/09/01 03:05:35;;;;;;;4.22;1.83;;;;;;;;;;5075766;28;20551;-66
2021/09/01 03:08:01;;;;;;;3.50;1.80;;;;;;;;;;5075586;28;20041;-64
2021/09/01 03:10:27;;;;;;;3.08;1.60;;;;;;;;;;5075760;28;20094;-66
2021/09/01 03:12:53;;;;;;;4.43;1.73;;;;;;;;;;5074454;28;20115;-65
2021/09/01 03:15:20;;;;;;;4.55;1.77;;;;;;;;;;5074386;28;20071;-65
2021/09/01 03:17:46;;;;;;;2.92;1.73;;;;;;;;;;5074849;28;20392;-65
2021/09/01 03:20:12;;;;;;;3.10;1.60;;;;;;;;;;5075126;28;20036;-64
2021/09/01 03:22:38;;;;;;;4.53;1.70;;;;;;;;;;5075431;28;20067;-65
2021/09/01 03:25:04;;;;;;;4.97;1.80;;;;;;;;;;5091868;28;20160;-65
2021/09/01 03:27:30;;;;;;;2.67;1.70;;;;;;;;;;5095561;28;20037;-65
2021/09/01 03:29:56;;;;;;;5.05;1.70;;;;;;;;;;5095409;28;20421;-65
2021/09/01 03:32:23;;;;;;;2.75;1.88;;;;;;;;;;5095112;28;20154;-65
2021/09/01 03:34:49;;;;;;;2.30;1.50;;;;;;;;;;5095493;28;20063;-65
2021/09/01 03:37:15;;;;;;;4.53;1.85;;;;;;;;;;5095344;28;20119;-65
2021/09/01 03:39:41;;;;;;;3.63;1.60;;;;;;;;;;5095558;28;20103;-66
2021/09/01 03:42:07;;;;;;;5.38;1.77;;;;;;;;;;5095061;28;20112;-64
2021/09/01 03:44:33;;;;;;;4.15;1.73;;;;;;;;;;5095091;28;20032;-64
2021/09/01 03:46:59;;;;;;;1.67;1.33;;;;;;;;;;5094858;28;20039;-65
2021/09/01 03:49:26;;;;;;;4.15;1.63;;;;;;;;;;5094057;28;20031;-64
2021/09/01 03:51:52;;;;;;;2.00;1.42;;;;;;;;;;5094776;28;20040;-64
2021/09/01 03:54:18;;;;;;;5.60;1.80;;;;;;;;;;5093140;28;20028;-65
2021/09/01 03:56:44;;;;;;;4.70;1.75;;;;;;;;;;5094826;28;20109;-65
2021/09/01 03:59:10;;;;;;;5.95;1.75;;;;;;;;;;5094772;28;20393;-65
2021/09/01 04:01:36;;;;;;;4.70;1.30;;;;;;;;;;5094857;28;20028;-65
2021/09/01 04:04:03;;;;;;;3.95;0.98;;;;;;;;;;5094916;28;20040;-65
2021/09/01 04:06:29;;;;;;;1.70;0.80;;;;;;;;;;5094664;28;20473;-64
2021/09/01 04:08:55;;;;;;;3.72;0.88;;;;;;;;;;5094650;28;20460;-65
2021/09/01 04:11:21;;;;;;;3.58;0.80;;;;;;;;;;5094806;28;20029;-64
2021/09/01 04:13:47;;;;;;;0.52;0.32;;;;;;;;;;5094788;28;20039;-65
2021/09/01 04:16:13;;;;;;;1.33;0.60;;;;;;;;;;5094454;28;20070;-65
2021/09/01 04:18:39;;;;;;;3.83;0.85;;;;;;;;;;5094619;28;20109;-64
2021/09/01 04:21:05;;;;;;;2.47;1.02;;;;;;;;;;5094696;28;20036;-64
2021/09/01 04:23:31;;;;;;;3.78;0.55;;;;;;;;;;5094048;28;20433;-64
2021/09/01 04:25:57;;;;;;;7.32;1.45;;;;;;;;;;5092651;28;20124;-65
2021/09/01 04:28:23;;;;;;;2.13;0.90;;;;;;;;;;5094266;28;20032;-66
2021/09/01 04:30:49;;;;;;;2.65;1.10;;;;;;;;;;5094282;28;20031;-65
2021/09/01 04:33:15;;;;;;;5.88;0.95;;;;;;;;;;5094273;28;20392;-65
2021/09/01 04:35:42;;;;;;;1.42;0.90;;;;;;;;;;5093968;28;20035;-64
2021/09/01 04:38:08;;;;;;;5.10;1.20;;;;;;;;;;5094047;28;20500;-64
2021/09/01 04:40:34;;;;;;;9.30;1.20;;;;;;;;;;5094108;28;20032;-67
2021/09/01 04:43:00;;;;;;;6.47;1.70;;;;;;;;;;5093942;28;20383;-64
2021/09/01 04:45:26;;;;;;;5.10;1.88;;;;;;;;;;5093683;28;20111;-66
2021/09/01 04:47:52;;;;;;;16.45;2.67;;;;;;;;;;5093831;28;20028;-67
2021/09/01 04:50:18;;;;;;;15.38;2.65;;;;;;;;;;5093569;28;20028;-64
2021/09/01 04:52:44;;;;;;;10.02;2.67;;;;;;;;;;5093931;28;20032;-65
2021/09/01 04:55:10;;;;;;;9.85;3.08;;;;;;;;;;5093880;28;20032;-64
2021/09/01 04:57:36;;;;;;;14.85;2.67;;;;;;;;;;5093699;28;20156;-64
2021/09/01 05:00:04;;;;;;;26.30;3.03;;;;;;;;;;5093096;28;20029;-64
2021/09/01 05:02:30;;;;;;;20.08;4.22;;;;;;;;;;5093380;28;20384;-64
2021/09/01 05:04:56;;;;;;;13.20;3.10;;;;;;;;;;5093320;28;20036;-64
2021/09/01 05:07:22;;;;;;;15.18;3.33;;;;;;;;;;5093547;28;20035;-65
2021/09/01 05:09:48;;;;;;;20.00;3.30;;;;;;;;;;5093525;28;20115;-65
2021/09/01 05:12:14;;;;;;;20.25;4.03;;;;;;;;;;5093519;28;20507;-64
2021/09/01 05:14:40;;;;;;;23.30;3.25;;;;;;;;;;5093427;28;20032;-67
2021/09/01 05:17:06;;;;;;;10.77;2.63;;;;;;;;;;5093455;28;20405;-67
2021/09/01 05:19:32;;;;;;;8.70;2.50;;;;;;;;;;5093431;28;20028;-66
2021/09/01 05:22:00;;;;;;;9.95;2.60;;;;;;;;;;5092957;28;20039;-65
2021/09/01 05:24:33;;;;;;;2.90;1.60;;;;;;;;;;5093237;28;20400;-66
2021/09/01 05:27:18;;;;;;;1.77;0.80;;;;;;;;;;5093250;28;20040;-65
2021/09/01 05:29:45;;;;;;;4.00;0.88;;;;;;;;;;5075354;28;20062;-65
2021/09/01 05:32:12;;;;;;;3.10;0.80;;;;;;;;;;5093146;28;20104;-66
2021/09/01 05:34:38;;;;;;;2.90;0.90;;;;;;;;;;5092926;28;20427;-64
2021/09/01 05:37:05;;;;;;;3.90;0.80;;;;;;;;;;5091547;28;20044;-66
2021/09/01 05:39:32;;;;;;;3.28;0.80;;;;;;;;;;5091866;28;20036;-65
2021/09/01 05:41:58;;;;;;;6.68;0.75;;;;;;;;;;5093251;28;20036;-65
2021/09/01 05:44:24;;;;;;;5.03;1.83;;;;;;;;;;5092569;28;20039;-67
2021/09/01 05:46:51;;;;;;;1.13;0.65;;;;;;;;;;5092872;28;20043;-65
2021/09/01 05:49:17;;;;;;;4.50;0.82;;;;;;;;;;5093070;28;20058;-65
2021/09/01 05:51:43;;;;;;;8.63;1.00;;;;;;;;;;5092872;28;20107;-73
2021/09/01 05:54:09;;;;;;;5.90;0.90;;;;;;;;;;5092831;28;20134;-74
2021/09/01 05:56:37;;;;;;;2.35;0.80;;;;;;;;;;5092902;28;20075;-73
2021/09/01 05:59:08;;;;;;;3.47;0.90;;;;;;;;;;5092797;28;20028;-74
2021/09/01 06:01:37;;;;;;;6.55;0.80;;;;;;;;;;5092845;28;20032;-74
2021/09/01 06:04:05;;;;;;;1.98;0.75;;;;;;;;;;5092861;28;20020;-73
2021/09/01 06:06:31;;;;;;;8.68;1.42;;;;;;;;;;5092700;28;20040;-72
2021/09/01 06:08:58;;;;;;;1.20;0.77;;;;;;;;;;5092771;28;20059;-73
2021/09/01 06:11:25;;;;;;;2.13;1.13;;;;;;;;;;5092785;28;20032;-74
2021/09/01 06:13:51;;;;;;;1.98;0.50;;;;;;;;;;5092619;28;20040;-73
2021/09/01 06:16:17;;;;;;;1.15;0.70;;;;;;;;;;5093078;28;20036;-75
2021/09/01 06:18:43;;;;;;;3.58;1.00;;;;;;;;;;5096834;28;20472;-74
2021/09/01 06:21:09;;;;;;;3.40;0.90;;;;;;;;;;5096508;28;20047;-76
2021/09/01 06:23:36;;;;;;;1.63;0.70;;;;;;;;;;5096416;28;20044;-74
2021/09/01 06:26:03;;;;;;;2.17;0.70;;;;;;;;;;5096046;28;20154;-74
2021/09/01 06:28:29;;;;;;;1.38;0.70;;;;;;;;;;5096577;28;20039;-78
2021/09/01 06:30:55;;;;;;;4.90;1.20;;;;;;;;;;5096342;28;20040;-76
2021/09/01 06:33:21;;;;;;;15.27;2.67;;;;;;;;;;5096175;28;20032;-73
2021/09/01 06:35:49;;;;;;;34.92;5.43;;;;;;;;;;5094914;28;20107;-79
2021/09/01 06:38:15;;;;;;;20.77;4.30;;;;;;;;;;5095747;28;20499;-72
2021/09/01 06:40:41;;;;;;;15.63;3.13;;;;;;;;;;5096025;28;20067;-75
2021/09/01 06:43:08;;;;;;;14.18;2.80;;;;;;;;;;5094749;28;20119;-76
2021/09/01 06:45:34;;;;;;;9.50;1.63;;;;;;;;;;5095959;28;20036;-76
2021/09/01 06:48:00;;;;;;;9.13;2.13;;;;;;;;;;5096027;28;20032;-78
2021/09/01 06:50:27;;;;;;;3.13;1.60;;;;;;;;;;5096443;28;20032;-79
2021/09/01 06:52:54;;;;;;;7.47;1.60;;;;;;;;;;5096701;28;20032;-79
2021/09/01 06:55:20;;;;;;;2.95;1.50;;;;;;;;;;5096055;28;20108;-77
2021/09/01 06:57:46;;;;;;;5.97;1.58;;;;;;;;;;5077566;28;20063;-77
2021/09/01 07:00:14;;;;;;;5.78;1.35;;;;;;;;;;5095769;28;20492;-77
2021/09/01 07:02:40;;;;;;;5.40;1.40;;;;;;;;;;5095669;28;20043;-72
2021/09/01 07:05:07;;;;;;;5.40;1.48;;;;;;;;;;5094900;28;20051;-71
2021/09/01 07:07:33;;;;;;;14.32;1.48;;;;;;;;;;5093411;28;20345;-74
2021/09/01 07:09:59;;;;;;;4.43;1.05;;;;;;;;;;5095973;28;20060;-76
2021/09/01 07:12:27;;;;;;;2.78;0.93;;;;;;;;;;5095894;28;20598;-72
2021/09/01 07:14:53;;;;;;;1.58;0.73;;;;;;;;;;5095725;28;20028;-72
2021/09/01 07:17:19;;;;;;;8.88;1.40;;;;;;;;;;5095886;28;20054;-71
2021/09/01 07:19:45;;;;;;;1.45;0.70;;;;;;;;;;5095994;28;20035;-70
2021/09/01 07:22:11;;;;;;;1.88;0.70;;;;;;;;;;5095946;28;20036;-75
2021/09/01 07:24:37;;;;;;;16.27;1.20;;;;;;;;;;5095248;28;20044;-74
2021/09/01 07:27:04;;;;;;;3.63;0.98;;;;;;;;;;5095585;28;20036;-70
2021/09/01 07:29:30;;;;;;;1.35;0.60;;;;;;;;;;5094547;28;20436;-70
2021/09/01 07:31:56;;;;;;;1.70;0.93;;;;;;;;;;5095709;28;20028;-72
2021/09/01 07:34:22;;;;;;;2.90;0.77;;;;;;;;;;5095443;28;20060;-71
2021/09/01 07:36:48;;;;;;;1.02;0.75;;;;;;;;;;5095469;28;20040;-72
2021/09/01 07:39:14;;;;;;;3.55;0.95;;;;;;;;;;5095424;28;20105;-70
2021/09/01 07:41:40;;;;;;;1.65;0.75;;;;;;;;;;5095535;28;20032;-70
2021/09/01 07:44:06;;;;;;;2.58;0.85;;;;;;;;;;5095649;28;20055;-70
2021/09/01 07:46:33;;;;;;;1.67;1.08;;;;;;;;;;5095250;28;20028;-70
2021/09/01 07:49:00;;;;;;;2.08;1.00;;;;;;;;;;5077134;28;20036;-71
2021/09/01 07:51:27;;;;;;;2.65;0.60;;;;;;;;;;5095248;28;20052;-72
2021/09/01 07:53:53;;;;;;;3.03;1.13;;;;;;;;;;5095293;28;20170;-70
2021/09/01 07:56:19;;;;;;;1.83;0.82;;;;;;;;;;5095054;28;20411;-71
2021/09/01 07:58:45;;;;;;;2.50;0.80;;;;;;;;;;5095074;28;20107;-71
2021/09/01 08:01:11;;;;;;;4.25;0.80;;;;;;;;;;5094988;28;20116;-71
2021/09/01 08:03:37;;;;;;;3.60;1.00;;;;;;;;;;5095048;28;20454;-70
2021/09/01 08:06:06;;;;;;;4.35;0.90;;;;;;;;;;5094763;28;20098;-71
2021/09/01 08:08:32;;;;;;;4.82;0.80;;;;;;;;;;5094764;28;20032;-72
2021/09/01 08:10:59;;;;;;;4.72;1.00;;;;;;;;;;5094901;28;20093;-70
2021/09/01 08:13:25;;;;;;;4.85;1.10;;;;;;;;;;5094627;28;20036;-71
2021/09/01 08:15:51;;;;;;;3.60;0.90;;;;;;;;;;5094592;28;20111;-70
2021/09/01 08:18:17;;;;;;;10.02;1.88;;;;;;;;;;5094850;28;20036;-69
2021/09/01 08:20:43;;;;;;;7.40;1.00;;;;;;;;;;5094500;28;20392;-71
2021/09/01 08:23:09;;;;;;;2.03;0.85;;;;;;;;;;5094190;28;20447;-71
2021/09/01 08:25:35;;;;;;;0.80;0.65;;;;;;;;;;5094567;28;20028;-73
2021/09/01 08:28:02;;;;;;;1.35;0.60;;;;;;;;;;5094620;28;20058;-72
2021/09/01 08:30:28;;;;;;;0.90;0.50;;;;;;;;;;5094320;28;20123;-72
2021/09/01 08:32:54;;;;;;;2.22;0.80;;;;;;;;;;5094555;28;20039;-72
2021/09/01 08:35:20;;;;;;;1.35;0.70;;;;;;;;;;5094603;28;20040;-74
2021/09/01 08:37:48;;;;;;;1.02;0.70;;;;;;;;;;5094342;28;20062;-71
2021/09/01 08:40:15;;;;;;;3.17;0.90;;;;;;;;;;5093889;28;20115;-72
2021/09/01 08:42:43;;;;;;;0.98;0.70;;;;;;;;;;5094327;28;20036;-72
2021/09/01 08:45:09;;;;;;;1.30;0.50;;;;;;;;;;5093860;28;20024;-72
2021/09/01 08:47:36;;;;;;;2.75;0.77;;;;;;;;;;5093970;28;20066;-72
2021/09/01 08:50:02;;;;;;;1.98;0.70;;;;;;;;;;5094037;28;20124;-72
2021/09/01 08:52:28;;;;;;;4.22;0.70;;;;;;;;;;5094099;28;20028;-72
2021/09/01 08:54:54;;;;;;;1.15;0.55;;;;;;;;;;5094082;28;20038;-72
2021/09/01 08:57:20;;;;;;;1.52;0.80;;;;;;;;;;5093785;28;20047;-73
2021/09/01 08:59:46;;;;;;;2.08;0.80;;;;;;;;;;5093808;28;20028;-72
2021/09/01 09:02:12;;;;;;;2.25;0.80;;;;;;;;;;5093872;28;20036;-72
2021/09/01 09:04:38;;;;;;;0.77;0.63;;;;;;;;;;5094059;28;20060;-72
2021/09/01 09:07:06;;;;;;;3.00;0.60;;;;;;;;;;5093929;28;20411;-72
2021/09/01 09:09:39;;;;;;;3.47;0.57;;;;;;;;;;5093741;28;20095;-73
2021/09/01 09:12:07;;;;;;;1.13;0.80;;;;;;;;;;5093731;28;20476;-72
2021/09/01 09:14:34;;;;;;;1.17;0.73;;;;;;;;;;5093745;28;20170;-73
2021/09/01 09:17:06;;;;;;;3.63;0.90;;;;;;;;;;5093770;28;20051;-72
2021/09/01 09:19:43;;;;;;;0.82;0.70;;;;;;;;;;5093627;28;20052;-72
2021/09/01 09:22:09;;;;;;;1.08;0.70;;;;;;;;;;5093394;28;20042;-72
2021/09/01 09:24:35;;;;;;;1.35;0.75;;;;;;;;;;5093022;28;20046;-72
2021/09/01 09:27:01;;;;;;;1.40;0.60;;;;;;;;;;5093344;28;20032;-72
2021/09/01 09:29:30;;;;;;;2.47;0.80;;;;;;;;;;5093502;28;20028;-72
2021/09/01 09:32:04;;;;;;;1.67;0.63;;;;;;;;;;5093312;28;20122;-72
2021/09/01 09:34:35;;;;;;;1.38;0.60;;;;;;;;;;5093301;28;20024;-72
2021/09/01 09:37:02;;;;;;;2.33;0.80;;;;;;;;;;5093247;28;20452;-72
2021/09/01 09:39:41;;;;;;;3.50;0.80;;;;;;;;;;5093369;28;20297;-72
2021/09/01 09:42:07;;;;;;;1.50;0.70;;;;;;;;;;5093319;28;20032;-72
2021/09/01 09:44:33;;;;;;;3.83;0.73;;;;;;;;;;5093493;28;20107;-72
2021/09/01 09:46:59;;;;;;;0.70;0.60;;;;;;;;;;5093296;28;20063;-72
2021/09/01 09:49:30;;;;;;;1.30;0.85;;;;;;;;;;5093254;28;20036;-72
2021/09/01 09:51:56;;;;;;;1.67;0.90;;;;;;;;;;5092479;28;20036;-72
2021/09/01 09:54:24;;;;;;;3.08;0.73;;;;;;;;;;5093206;28;20469;-71
2021/09/01 09:56:50;;;;;;;1.77;0.77;;;;;;;;;;5093244;28;20044;-72
2021/09/01 09:59:17;;;;;;;3.60;0.90;;;;;;;;;;5092820;28;20111;-72
2021/09/01 10:01:44;;;;;;;4.15;1.05;;;;;;;;;;5092828;28;20062;-72
2021/09/01 10:04:10;;;;;;;3.63;0.80;;;;;;;;;;5092980;28;20050;-72
2021/09/01 10:06:36;;;;;;;1.15;0.68;;;;;;;;;;5093131;28;20388;-72
2021/09/01 10:09:03;;;;;;;0.85;0.80;;;;;;;;;;5093079;28;20033;-72
2021/09/01 10:11:30;;;;;;;1.00;0.80;;;;;;;;;;5092943;28;20472;-72
2021/09/01 10:13:56;;;;;;;0.82;0.63;;;;;;;;;;5092989;28;20056;-72
2021/09/01 10:16:25;;;;;;;1.98;0.80;;;;;;;;;;5093026;28;20044;-72
2021/09/01 10:19:07;;;;;;;2.65;0.60;;;;;;;;;;5093056;28;20098;-72
2021/09/01 10:21:34;;;;;;;1.30;0.80;;;;;;;;;;5093110;28;20099;-72
2021/09/01 10:24:17;;;;;;;4.43;0.70;;;;;;;;;;5092842;28;20150;-73
2021/09/01 10:26:56;;;;;;;6.05;0.77;;;;;;;;;;5092713;28;20040;-72
2021/09/01 10:29:41;;;;;;;1.17;0.68;;;;;;;;;;5092812;28;20177;-72
2021/09/01 10:32:16;;;;;;;2.25;0.80;;;;;;;;;;5093050;28;20036;-72
2021/09/01 10:34:42;;;;;;;2.20;1.13;;;;;;;;;;5092933;28;20398;-71
2021/09/01 10:37:08;;;;;;;2.75;0.60;;;;;;;;;;5092665;28;20044;-72
2021/09/01 10:39:34;;;;;;;3.13;0.82;;;;;;;;;;5092387;28;20043;-72
2021/09/01 10:42:20;;;;;;;1.98;0.80;;;;;;;;;;5092638;28;20039;-71
2021/09/01 10:44:48;;;;;;;2.63;0.70;;;;;;;;;;5092466;28;20025;-72
2021/09/01 10:47:14;;;;;;;2.42;0.80;;;;;;;;;;5092758;28;20043;-72
2021/09/01 10:49:55;;;;;;;2.10;0.50;;;;;;;;;;5092543;28;20032;-72
2021/09/01 10:52:22;;;;;;;1.30;0.60;;;;;;;;;;5092812;28;20039;-72
2021/09/01 10:54:51;;;;;;;1.70;0.50;;;;;;;;;;5092629;28;20039;-72
2021/09/01 10:57:22;;;;;;;1.27;0.70;;;;;;;;;;5092656;28;20047;-72
2021/09/01 10:59:48;;;;;;;1.77;0.80;;;;;;;;;;5092569;28;20059;-72
2021/09/01 11:02:15;;;;;;;1.65;0.80;;;;;;;;;;5092682;28;20032;-72
2021/09/01 11:04:51;;;;;;;0.80;0.80;;;;;;;;;;5095960;28;20036;-73
2021/09/01 11:07:20;;;;;;;1.77;0.82;;;;;;;;;;5095989;28;20031;-73
2021/09/01 11:09:50;;;;;;;0.82;0.70;;;;;;;;;;5095926;28;20040;-72
2021/09/01 11:12:16;;;;;;;2.05;0.82;;;;;;;;;;5095589;28;20042;-72
2021/09/01 11:14:43;;;;;;;1.25;0.85;;;;;;;;;;5095829;28;20032;-72
2021/09/01 11:17:10;;;;;;;1.50;0.60;;;;;;;;;;5095750;28;20071;-72
2021/09/01 11:19:37;;;;;;;3.67;0.80;;;;;;;;;;5095894;28;20111;-71
2021/09/01 11:22:07;;;;;;;2.53;0.60;;;;;;;;;;5095675;28;20032;-73
2021/09/01 11:24:44;;;;;;;3.75;0.50;;;;;;;;;;5095577;28;20048;-72
2021/09/01 11:27:12;;;;;;;2.45;0.88;;;;;;;;;;5095893;28;20036;-73
2021/09/01 11:29:38;;;;;;;1.52;0.90;;;;;;;;;;5095484;28;20044;-73
2021/09/01 11:32:04;;;;;;;1.77;0.80;;;;;;;;;;5095248;28;20035;-72
2021/09/01 11:34:30;;;;;;;1.08;0.80;;;;;;;;;;5095608;28;20028;-73
2021/09/01 11:36:56;;;;;;;2.10;0.68;;;;;;;;;;5095420;28;20048;-72
2021/09/01 11:39:22;;;;;;;0.70;0.70;;;;;;;;;;5095600;28;20084;-73
2021/09/01 11:42:02;;;;;;;2.17;0.93;;;;;;;;;;5095446;28;20059;-73
2021/09/01 11:44:28;;;;;;;0.90;0.80;;;;;;;;;;5095238;28;20032;-73
2021/09/01 11:46:54;;;;;;;0.80;0.50;;;;;;;;;;5095345;28;20111;-72
2021/09/01 11:49:20;;;;;;;0.98;0.70;;;;;;;;;;5095189;28;20480;-73
2021/09/01 11:51:47;;;;;;;0.90;0.80;;;;;;;;;;5095053;28;20032;-73
2021/09/01 11:54:14;;;;;;;1.20;1.00;;;;;;;;;;5095230;28;20024;-72
2021/09/01 11:56:40;;;;;;;1.27;0.70;;;;;;;;;;5077204;28;20036;-73
2021/09/01 11:59:06;;;;;;;1.30;0.80;;;;;;;;;;5094909;28;20499;-73
2021/09/01 12:01:47;;;;;;;3.38;0.70;;;;;;;;;;5095061;28;20115;-72
2021/09/01 12:04:15;;;;;;;1.35;0.70;;;;;;;;;;5095250;28;20504;-72
2021/09/01 12:06:43;;;;;;;1.00;0.80;;;;;;;;;;5095043;28;20437;-72
2021/09/01 12:09:13;;;;;;;1.98;0.80;;;;;;;;;;5095003;28;20095;-72
2021/09/01 12:11:39;;;;;;;0.82;0.70;;;;;;;;;;5094867;28;20028;-73
2021/09/01 12:14:07;;;;;;;1.17;1.00;;;;;;;;;;5093995;28;20043;-73
2021/09/01 12:16:33;;;;;;;0.80;0.75;;;;;;;;;;5076599;28;20471;-73
2021/09/01 12:19:02;;;;;;;1.65;1.15;;;;;;;;;;5094777;28;20031;-73
2021/09/01 12:22:04;;;;;;;2.22;0.90;;;;;;;;;;5094799;28;20032;-73
2021/09/01 12:24:36;;;;;;;0.82;0.80;;;;;;;;;;5012540;28;20157;-72
2021/09/01 12:27:02;;;;;;;;;;;;;;;;;;5064573;28;20028;-72
2021/09/01 12:29:28;;;;;;;1.40;0.80;;;;;;;;;;5074217;28;19912;-73
2021/09/01 12:31:54;;;;;;;1.02;0.80;;;;;;;;;;5074193;28;20516;-72
2021/09/01 12:34:31;;;;;;;3.97;0.80;;;;;;;;;;5074376;28;20028;-72
2021/09/01 12:36:58;;;;;;;2.58;0.77;;;;;;;;;;5074010;28;20036;-72
2021/09/01 12:39:24;;;;;;;1.85;1.00;;;;;;;;;;5074133;28;20043;-72
2021/09/01 12:41:50;;;;;;;1.05;0.80;;;;;;;;;;5074095;28;20431;-72
2021/09/01 12:44:16;;;;;;;3.88;0.90;;;;;;;;;;5074126;28;20040;-72
2021/09/01 12:46:43;;;;;;;3.47;0.68;;;;;;;;;;5073906;28;20481;-72
2021/09/01 12:49:22;;;;;;;1.88;0.70;;;;;;;;;;5074024;28;20381;-72
2021/09/01 12:51:48;;;;;;;2.35;0.80;;;;;;;;;;5073739;28;20037;-72
2021/09/01 12:54:14;;;;;;;1.13;0.70;;;;;;;;;;5073736;28;20039;-72
2021/09/01 12:56:41;;;;;;;0.95;0.70;;;;;;;;;;5073689;28;20052;-73
2021/09/01 12:59:07;;;;;;;4.53;0.90;;;;;;;;;;5073538;28;20067;-72
2021/09/01 13:01:33;;;;;;;1.23;0.90;;;;;;;;;;5073524;28;20472;-72
2021/09/01 13:03:59;;;;;;;1.10;0.70;;;;;;;;;;5073488;28;20100;-72
2021/09/01 13:06:25;;;;;;;2.28;0.77;;;;;;;;;;5073592;28;20039;-72
2021/09/01 13:08:51;;;;;;;2.83;0.60;;;;;;;;;;5073456;28;20500;-72
2021/09/01 13:11:17;;;;;;;1.42;0.60;;;;;;;;;;5073391;28;20103;-72
2021/09/01 13:13:43;;;;;;;1.30;0.98;;;;;;;;;;5073210;28;20071;-72
2021/09/01 13:16:09;;;;;;;1.92;1.00;;;;;;;;;;5055682;28;20025;-72
2021/09/01 13:18:35;;;;;;;1.48;0.77;;;;;;;;;;5073565;28;20468;-73
2021/09/01 13:21:01;;;;;;;2.55;0.70;;;;;;;;;;5055368;28;20071;-72
2021/09/01 13:23:27;;;;;;;1.00;0.90;;;;;;;;;;5076332;28;20072;-72
2021/09/01 13:25:53;;;;;;;1.30;0.80;;;;;;;;;;5093156;28;20072;-73
2021/09/01 13:28:19;;;;;;;1.23;0.90;;;;;;;;;;5093564;28;20047;-72
2021/09/01 13:30:45;;;;;;;1.40;0.80;;;;;;;;;;5093635;28;20024;-72
2021/09/01 13:33:11;;;;;;;1.25;0.80;;;;;;;;;;5093484;28;20032;-72
2021/09/01 13:35:38;;;;;;;0.82;0.80;;;;;;;;;;5093475;28;20046;-72
2021/09/01 13:38:04;;;;;;;1.10;0.90;;;;;;;;;;5093448;28;20044;-73
2021/09/01 13:40:30;;;;;;;1.52;0.60;;;;;;;;;;5093509;28;20030;-72
2021/09/01 13:42:56;;;;;;;2.70;0.98;;;;;;;;;;5093412;28;20063;-72
2021/09/01 13:45:22;;;;;;;0.98;0.60;;;;;;;;;;5093361;28;20151;-72
2021/09/01 13:47:48;;;;;;;3.50;0.70;;;;;;;;;;5093198;28;20036;-72
2021/09/01 13:50:14;;;;;;;3.25;0.80;;;;;;;;;;5093324;28;20034;-72
2021/09/01 13:52:40;;;;;;;1.02;0.63;;;;;;;;;;5093159;28;20036;-73
2021/09/01 13:55:06;;;;;;;1.80;0.93;;;;;;;;;;5092950;28;20039;-72
2021/09/01 13:57:33;;;;;;;4.35;0.90;;;;;;;;;;5092974;28;20048;-72
2021/09/01 14:00:05;;;;;;;1.73;0.77;;;;;;;;;;5093180;28;20039;-72
2021/09/01 14:02:31;;;;;;;1.30;0.70;;;;;;;;;;5093203;28;20469;-72
2021/09/01 14:04:57;;;;;;;1.65;0.80;;;;;;;;;;5092871;28;20036;-72
2021/09/01 14:07:23;;;;;;;0.88;0.80;;;;;;;;;;5075382;28;20028;-73
2021/09/01 14:09:49;;;;;;;5.07;0.93;;;;;;;;;;5093007;28;20115;-73
2021/09/01 14:12:15;;;;;;;0.93;0.60;;;;;;;;;;5092803;28;20032;-72
2021/09/01 14:14:41;;;;;;;4.63;0.70;;;;;;;;;;5093102;28;20047;-73
2021/09/01 14:17:07;;;;;;;1.95;0.90;;;;;;;;;;5092815;28;20047;-72
2021/09/01 14:19:33;;;;;;;5.25;0.75;;;;;;;;;;5092933;28;20094;-72
2021/09/01 14:21:59;;;;;;;4.15;1.00;;;;;;;;;;5092904;28;20396;-73
2021/09/01 14:24:25;;;;;;;1.83;0.73;;;;;;;;;;5092610;28;20540;-72
2021/09/01 14:26:51;;;;;;;6.47;1.00;;;;;;;;;;5092979;28;20043;-73
2021/09/01 14:29:17;;;;;;;2.50;0.88;;;;;;;;;;5092710;28;20046;-73
2021/09/01 14:31:43;;;;;;;6.68;1.00;;;;;;;;;;5092687;28;20543;-73
2021/09/01 14:34:09;;;;;;;2.97;0.90;;;;;;;;;;5092569;28;20028;-73
2021/09/01 14:36:35;;;;;;;7.25;0.98;;;;;;;;;;5092455;28;20040;-73
2021/09/01 14:39:01;;;;;;;5.18;0.80;;;;;;;;;;5095956;28;20544;-72
2021/09/01 14:41:27;;;;;;;4.38;0.65;;;;;;;;;;5078442;28;20098;-72
2021/09/01 14:43:54;;;;;;;3.67;0.70;;;;;;;;;;5096627;28;20043;-72